sensor_id;sensor_type;location;lat;lon;timestamp;temperature;humidity
6666;DHT22;3369;49.906;8.598;2024-02-28T00:00:12;4.60;99.90
6666;DHT22;3369;49.906;8.598;2024-02-28T00:02:37;4.60;99.90
6666;DHT22;3369;49.906;8.598;2024-02-28T00:05:03;4.60;99.90
6666;DHT22;3369;49.906;8.598;2024-02-28T00:07:29;4.60;99.90
6666;DHT22;3369;49.906;8.598;2024-02-28T00:09:55;4.60;99.90
6666;DHT22;3369;49.906;8.598;2024-02-28T00:12:23;4.50;99.90
6666;DHT22;3369;49.906;8.598;2024-02-28T00:14:51;4.50;99.90
6666;DHT22;3369;49.906;8.598;2024-02-28T00:17:16;4.50;99.90
6666;DHT22;3369;49.906;8.598;2024-02-28T00:19:42;4.50;99.90
6666;DHT22;3369;49.906;8.598;2024-02-28T00:22:09;4.50;99.90
6666;DHT22;3369;49.906;8.598;2024-02-28T00:24:34;4.40;99.90
6666;DHT22;3369;49.906;8.598;2024-02-28T00:27:00;4.40;99.90
6666;DHT22;3369;49.906;8.598;2024-02-28T00:29:26;4.30;99.90
6666;DHT22;3369;49.906;8.598;2024-02-28T00:31:52;4.30;99.90
6666;DHT22;3369;49.906;8.598;2024-02-28T00:34:18;4.20;99.90
6666;DHT22;3369;49.906;8.598;2024-02-28T00:36:43;4.10;99.90
6666;DHT22;3369;49.906;8.598;2024-02-28T00:39:10;4.10;99.90
6666;DHT22;3369;49.906;8.598;2024-02-28T00:41:36;4.10;99.90
6666;DHT22;3369;49.906;8.598;2024-02-28T00:44:02;4.10;99.90
6666;DHT22;3369;49.906;8.598;2024-02-28T00:46:28;4.00;99.90
6666;DHT22;3369;49.906;8.598;2024-02-28T00:48:54;4.10;99.90
6666;DHT22;3369;49.906;8.598;2024-02-28T00:51:19;4.00;99.90
6666;DHT22;3369;49.906;8.598;2024-02-28T00:53:45;4.00;99.90
6666;DHT22;3369;49.906;8.598;2024-02-28T00:56:11;3.90;99.90
6666;DHT22;3369;49.906;8.598;2024-02-28T00:58:36;3.90;99.90
6666;DHT22;3369;49.906;8.598;2024-02-28T01:01:04;4.00;99.90
6666;DHT22;3369;49.906;8.598;2024-02-28T01:03:30;3.90;99.90
6666;DHT22;3369;49.906;8.598;2024-02-28T01:05:55;3.90;99.90
6666;DHT22;3369;49.906;8.598;2024-02-28T01:08:22;3.90;99.90
6666;DHT22;3369;49.906;8.598;2024-02-28T01:10:47;3.80;99.90
6666;DHT22;3369;49.906;8.598;2024-02-28T01:13:13;3.90;99.90
6666;DHT22;3369;49.906;8.598;2024-02-28T01:15:41;3.80;99.90
6666;DHT22;3369;49.906;8.598;2024-02-28T01:18:07;3.80;99.90
6666;DHT22;3369;49.906;8.598;2024-02-28T01:20:33;3.80;99.90
6666;DHT22;3369;49.906;8.598;2024-02-28T01:22:58;3.80;99.90
6666;DHT22;3369;49.906;8.598;2024-02-28T01:25:24;3.80;99.90
6666;DHT22;3369;49.906;8.598;2024-02-28T01:27:49;3.80;99.90
6666;DHT22;3369;49.906;8.598;2024-02-28T01:30:15;3.80;99.90
6666;DHT22;3369;49.906;8.598;2024-02-28T01:32:41;3.80;99.90
6666;DHT22;3369;49.906;8.598;2024-02-28T01:35:08;3.80;99.90
6666;DHT22;3369;49.906;8.598;2024-02-28T01:37:34;3.70;99.90
6666;DHT22;3369;49.906;8.598;2024-02-28T01:40:00;3.70;99.90
6666;DHT22;3369;49.906;8.598;2024-02-28T01:42:25;3.70;99.90
6666;DHT22;3369;49.906;8.598;2024-02-28T01:44:51;3.70;99.90
6666;DHT22;3369;49.906;8.598;2024-02-28T01:47:17;3.60;99.90
6666;DHT22;3369;49.906;8.598;2024-02-28T01:49:43;3.60;99.90
6666;DHT22;3369;49.906;8.598;2024-02-28T01:52:10;3.50;99.90
6666;DHT22;3369;49.906;8.598;2024-02-28T01:54:38;3.50;99.90
6666;DHT22;3369;49.906;8.598;2024-02-28T01:57:04;3.50;99.90
6666;DHT22;3369;49.906;8.598;2024-02-28T01:59:31;3.40;99.90
6666;DHT22;3369;49.906;8.598;2024-02-28T02:01:57;3.40;99.90
6666;DHT22;3369;49.906;8.598;2024-02-28T02:04:23;3.40;99.90
6666;DHT22;3369;49.906;8.598;2024-02-28T02:06:48;3.40;99.90
6666;DHT22;3369;49.906;8.598;2024-02-28T02:09:15;3.30;99.90
6666;DHT22;3369;49.906;8.598;2024-02-28T02:11:41;3.30;99.90
6666;DHT22;3369;49.906;8.598;2024-02-28T02:14:07;3.30;99.90
6666;DHT22;3369;49.906;8.598;2024-02-28T02:16:33;3.20;99.90
6666;DHT22;3369;49.906;8.598;2024-02-28T02:18:58;3.20;99.90
6666;DHT22;3369;49.906;8.598;2024-02-28T02:21:30;3.30;99.90
6666;DHT22;3369;49.906;8.598;2024-02-28T02:23:56;3.30;99.90
6666;DHT22;3369;49.906;8.598;2024-02-28T02:26:22;3.30;99.90
6666;DHT22;3369;49.906;8.598;2024-02-28T02:28:47;3.20;99.90
6666;DHT22;3369;49.906;8.598;2024-02-28T02:31:13;3.20;99.90
6666;DHT22;3369;49.906;8.598;2024-02-28T02:33:39;3.20;99.90
6666;DHT22;3369;49.906;8.598;2024-02-28T02:36:05;3.20;99.90
6666;DHT22;3369;49.906;8.598;2024-02-28T02:38:30;3.10;99.90
6666;DHT22;3369;49.906;8.598;2024-02-28T02:40:56;3.10;99.90
6666;DHT22;3369;49.906;8.598;2024-02-28T02:43:21;3.10;99.90
6666;DHT22;3369;49.906;8.598;2024-02-28T02:45:47;3.10;99.90
6666;DHT22;3369;49.906;8.598;2024-02-28T02:48:13;3.10;99.90
6666;DHT22;3369;49.906;8.598;2024-02-28T02:50:38;3.00;99.90
6666;DHT22;3369;49.906;8.598;2024-02-28T02:53:06;3.00;99.90
6666;DHT22;3369;49.906;8.598;2024-02-28T02:55:32;3.00;99.90
6666;DHT22;3369;49.906;8.598;2024-02-28T02:57:58;2.90;99.90
6666;DHT22;3369;49.906;8.598;2024-02-28T03:00:23;2.90;99.90
6666;DHT22;3369;49.906;8.598;2024-02-28T03:02:49;2.90;99.90
6666;DHT22;3369;49.906;8.598;2024-02-28T03:05:14;2.80;99.90
6666;DHT22;3369;49.906;8.598;2024-02-28T03:07:40;2.80;99.90
6666;DHT22;3369;49.906;8.598;2024-02-28T03:10:06;2.80;99.90
6666;DHT22;3369;49.906;8.598;2024-02-28T03:12:32;2.80;99.90
6666;DHT22;3369;49.906;8.598;2024-02-28T03:14:58;2.70;99.90
6666;DHT22;3369;49.906;8.598;2024-02-28T03:17:24;2.70;99.90
6666;DHT22;3369;49.906;8.598;2024-02-28T03:19:50;2.60;99.90
6666;DHT22;3369;49.906;8.598;2024-02-28T03:22:15;2.70;99.90
6666;DHT22;3369;49.906;8.598;2024-02-28T03:24:41;2.60;99.90
6666;DHT22;3369;49.906;8.598;2024-02-28T03:27:06;2.60;99.90
6666;DHT22;3369;49.906;8.598;2024-02-28T03:29:32;2.60;99.90
6666;DHT22;3369;49.906;8.598;2024-02-28T03:31:58;2.60;99.90
6666;DHT22;3369;49.906;8.598;2024-02-28T03:34:24;2.60;99.90
6666;DHT22;3369;49.906;8.598;2024-02-28T03:36:50;2.60;99.90
6666;DHT22;3369;49.906;8.598;2024-02-28T03:39:15;2.60;99.90
6666;DHT22;3369;49.906;8.598;2024-02-28T03:41:41;2.60;99.90
6666;DHT22;3369;49.906;8.598;2024-02-28T03:44:06;2.60;99.90
6666;DHT22;3369;49.906;8.598;2024-02-28T03:46:32;2.60;99.90
6666;DHT22;3369;49.906;8.598;2024-02-28T03:48:58;2.70;99.90
6666;DHT22;3369;49.906;8.598;2024-02-28T03:51:24;2.70;99.90
6666;DHT22;3369;49.906;8.598;2024-02-28T03:53:49;2.80;99.90
6666;DHT22;3369;49.906;8.598;2024-02-28T03:56:25;2.80;99.90
6666;DHT22;3369;49.906;8.598;2024-02-28T03:58:51;2.70;99.90
6666;DHT22;3369;49.906;8.598;2024-02-28T04:01:17;2.70;99.90
6666;DHT22;3369;49.906;8.598;2024-02-28T04:03:43;2.70;99.90
6666;DHT22;3369;49.906;8.598;2024-02-28T04:06:08;2.60;99.90
6666;DHT22;3369;49.906;8.598;2024-02-28T04:08:34;2.60;99.90
6666;DHT22;3369;49.906;8.598;2024-02-28T04:10:59;2.60;99.90
6666;DHT22;3369;49.906;8.598;2024-02-28T04:13:25;2.50;99.90
6666;DHT22;3369;49.906;8.598;2024-02-28T04:15:51;2.50;99.90
6666;DHT22;3369;49.906;8.598;2024-02-28T04:18:17;2.40;99.90
6666;DHT22;3369;49.906;8.598;2024-02-28T04:20:42;2.30;99.90
6666;DHT22;3369;49.906;8.598;2024-02-28T04:23:08;2.30;99.90
6666;DHT22;3369;49.906;8.598;2024-02-28T04:25:33;2.20;99.90
6666;DHT22;3369;49.906;8.598;2024-02-28T04:27:59;2.20;99.90
6666;DHT22;3369;49.906;8.598;2024-02-28T04:30:25;2.10;99.90
6666;DHT22;3369;49.906;8.598;2024-02-28T04:32:50;2.10;99.90
6666;DHT22;3369;49.906;8.598;2024-02-28T04:35:16;2.10;99.90
6666;DHT22;3369;49.906;8.598;2024-02-28T04:37:44;2.10;99.90
6666;DHT22;3369;49.906;8.598;2024-02-28T04:40:11;2.00;99.90
6666;DHT22;3369;49.906;8.598;2024-02-28T04:42:36;2.00;99.90
6666;DHT22;3369;49.906;8.598;2024-02-28T04:45:03;1.80;99.90
6666;DHT22;3369;49.906;8.598;2024-02-28T04:47:29;1.70;99.90
6666;DHT22;3369;49.906;8.598;2024-02-28T04:49:55;1.60;99.90
6666;DHT22;3369;49.906;8.598;2024-02-28T04:52:20;1.50;99.90
6666;DHT22;3369;49.906;8.598;2024-02-28T04:54:47;1.40;99.90
6666;DHT22;3369;49.906;8.598;2024-02-28T04:57:12;1.40;99.90
6666;DHT22;3369;49.906;8.598;2024-02-28T04:59:38;1.40;99.90
6666;DHT22;3369;49.906;8.598;2024-02-28T05:02:04;1.30;99.90
6666;DHT22;3369;49.906;8.598;2024-02-28T05:04:29;1.20;99.90
6666;DHT22;3369;49.906;8.598;2024-02-28T05:06:55;1.20;99.90
6666;DHT22;3369;49.906;8.598;2024-02-28T05:09:20;1.10;99.90
6666;DHT22;3369;49.906;8.598;2024-02-28T05:11:46;1.10;99.90
6666;DHT22;3369;49.906;8.598;2024-02-28T05:14:11;1.10;99.90
6666;DHT22;3369;49.906;8.598;2024-02-28T05:16:37;1.10;99.90
6666;DHT22;3369;49.906;8.598;2024-02-28T05:19:03;1.20;99.90
6666;DHT22;3369;49.906;8.598;2024-02-28T05:21:29;1.20;99.90
6666;DHT22;3369;49.906;8.598;2024-02-28T05:23:55;1.20;99.90
6666;DHT22;3369;49.906;8.598;2024-02-28T05:26:20;1.30;99.90
6666;DHT22;3369;49.906;8.598;2024-02-28T05:28:46;1.30;99.90
6666;DHT22;3369;49.906;8.598;2024-02-28T05:31:25;1.30;99.90
6666;DHT22;3369;49.906;8.598;2024-02-28T05:33:51;1.30;99.90
6666;DHT22;3369;49.906;8.598;2024-02-28T05:36:17;1.40;99.90
6666;DHT22;3369;49.906;8.598;2024-02-28T05:38:44;1.30;99.90
6666;DHT22;3369;49.906;8.598;2024-02-28T05:41:10;1.40;99.90
6666;DHT22;3369;49.906;8.598;2024-02-28T05:43:37;1.40;99.90
6666;DHT22;3369;49.906;8.598;2024-02-28T05:46:03;1.40;99.90
6666;DHT22;3369;49.906;8.598;2024-02-28T05:48:29;1.40;99.90
6666;DHT22;3369;49.906;8.598;2024-02-28T05:50:54;1.40;99.90
6666;DHT22;3369;49.906;8.598;2024-02-28T05:53:20;1.40;99.90
6666;DHT22;3369;49.906;8.598;2024-02-28T05:55:46;1.50;99.90
6666;DHT22;3369;49.906;8.598;2024-02-28T05:58:13;1.40;99.90
6666;DHT22;3369;49.906;8.598;2024-02-28T06:00:38;1.40;99.90
6666;DHT22;3369;49.906;8.598;2024-02-28T06:03:04;1.40;99.90
6666;DHT22;3369;49.906;8.598;2024-02-28T06:05:30;1.40;99.90
6666;DHT22;3369;49.906;8.598;2024-02-28T06:07:56;1.40;99.90
6666;DHT22;3369;49.906;8.598;2024-02-28T06:10:21;1.40;99.90
6666;DHT22;3369;49.906;8.598;2024-02-28T06:12:47;1.40;99.90
6666;DHT22;3369;49.906;8.598;2024-02-28T06:15:13;1.40;99.90
6666;DHT22;3369;49.906;8.598;2024-02-28T06:17:38;1.40;99.90
6666;DHT22;3369;49.906;8.598;2024-02-28T06:20:05;1.40;99.90
6666;DHT22;3369;49.906;8.598;2024-02-28T06:22:32;1.50;99.90
6666;DHT22;3369;49.906;8.598;2024-02-28T06:24:57;1.50;99.90
6666;DHT22;3369;49.906;8.598;2024-02-28T06:27:23;1.50;99.90
6666;DHT22;3369;49.906;8.598;2024-02-28T06:29:48;1.60;99.90
6666;DHT22;3369;49.906;8.598;2024-02-28T06:32:14;1.70;99.90
6666;DHT22;3369;49.906;8.598;2024-02-28T06:34:40;1.70;99.90
6666;DHT22;3369;49.906;8.598;2024-02-28T06:37:07;1.70;99.90
6666;DHT22;3369;49.906;8.598;2024-02-28T06:39:32;1.80;99.90
6666;DHT22;3369;49.906;8.598;2024-02-28T06:41:58;1.80;99.90
6666;DHT22;3369;49.906;8.598;2024-02-28T06:44:25;1.80;99.90
6666;DHT22;3369;49.906;8.598;2024-02-28T06:46:51;1.90;99.90
6666;DHT22;3369;49.906;8.598;2024-02-28T06:49:16;1.90;99.90
6666;DHT22;3369;49.906;8.598;2024-02-28T06:51:44;2.00;99.90
6666;DHT22;3369;49.906;8.598;2024-02-28T06:54:09;2.00;99.90
6666;DHT22;3369;49.906;8.598;2024-02-28T06:56:35;2.00;99.90
6666;DHT22;3369;49.906;8.598;2024-02-28T06:59:01;2.10;99.90
6666;DHT22;3369;49.906;8.598;2024-02-28T07:01:27;2.10;99.90
6666;DHT22;3369;49.906;8.598;2024-02-28T07:03:53;2.20;99.90
6666;DHT22;3369;49.906;8.598;2024-02-28T07:06:18;2.20;99.90
6666;DHT22;3369;49.906;8.598;2024-02-28T07:08:44;2.20;99.90
6666;DHT22;3369;49.906;8.598;2024-02-28T07:11:15;2.20;99.90
6666;DHT22;3369;49.906;8.598;2024-02-28T07:13:41;2.30;99.90
6666;DHT22;3369;49.906;8.598;2024-02-28T07:16:07;2.30;99.90
6666;DHT22;3369;49.906;8.598;2024-02-28T07:18:33;2.30;99.90
6666;DHT22;3369;49.906;8.598;2024-02-28T07:20:59;2.40;99.90
6666;DHT22;3369;49.906;8.598;2024-02-28T07:23:26;2.40;99.90
6666;DHT22;3369;49.906;8.598;2024-02-28T07:25:51;2.50;99.90
6666;DHT22;3369;49.906;8.598;2024-02-28T07:28:17;2.60;99.90
6666;DHT22;3369;49.906;8.598;2024-02-28T07:30:43;2.60;99.90
6666;DHT22;3369;49.906;8.598;2024-02-28T07:33:10;2.70;99.90
6666;DHT22;3369;49.906;8.598;2024-02-28T07:35:46;2.80;99.90
6666;DHT22;3369;49.906;8.598;2024-02-28T07:38:11;2.90;99.90
6666;DHT22;3369;49.906;8.598;2024-02-28T07:40:37;2.90;99.90
6666;DHT22;3369;49.906;8.598;2024-02-28T07:43:02;3.00;99.90
6666;DHT22;3369;49.906;8.598;2024-02-28T07:45:28;3.00;99.90
6666;DHT22;3369;49.906;8.598;2024-02-28T07:47:54;3.10;99.90
6666;DHT22;3369;49.906;8.598;2024-02-28T07:50:19;3.20;99.90
6666;DHT22;3369;49.906;8.598;2024-02-28T07:52:45;3.20;99.90
6666;DHT22;3369;49.906;8.598;2024-02-28T07:55:11;3.20;99.90
6666;DHT22;3369;49.906;8.598;2024-02-28T07:57:36;3.30;99.90
6666;DHT22;3369;49.906;8.598;2024-02-28T08:00:03;3.40;99.90
6666;DHT22;3369;49.906;8.598;2024-02-28T08:02:30;3.40;99.90
6666;DHT22;3369;49.906;8.598;2024-02-28T08:04:56;3.40;99.90
6666;DHT22;3369;49.906;8.598;2024-02-28T08:07:22;3.40;99.90
6666;DHT22;3369;49.906;8.598;2024-02-28T08:09:48;3.50;99.90
6666;DHT22;3369;49.906;8.598;2024-02-28T08:12:13;3.50;99.90
6666;DHT22;3369;49.906;8.598;2024-02-28T08:14:39;3.60;99.90
6666;DHT22;3369;49.906;8.598;2024-02-28T08:17:04;3.70;99.90
6666;DHT22;3369;49.906;8.598;2024-02-28T08:19:30;3.70;99.90
6666;DHT22;3369;49.906;8.598;2024-02-28T08:21:56;3.70;99.90
6666;DHT22;3369;49.906;8.598;2024-02-28T08:24:22;3.70;99.90
6666;DHT22;3369;49.906;8.598;2024-02-28T08:26:47;3.70;99.90
6666;DHT22;3369;49.906;8.598;2024-02-28T08:29:13;3.80;99.90
6666;DHT22;3369;49.906;8.598;2024-02-28T08:31:43;3.80;99.90
6666;DHT22;3369;49.906;8.598;2024-02-28T08:34:09;3.90;99.90
6666;DHT22;3369;49.906;8.598;2024-02-28T08:36:37;4.00;99.90
6666;DHT22;3369;49.906;8.598;2024-02-28T08:39:02;4.20;99.90
6666;DHT22;3369;49.906;8.598;2024-02-28T08:41:33;4.30;99.90
6666;DHT22;3369;49.906;8.598;2024-02-28T08:43:59;4.50;99.90
6666;DHT22;3369;49.906;8.598;2024-02-28T08:46:25;4.60;99.90
6666;DHT22;3369;49.906;8.598;2024-02-28T08:48:50;4.90;99.90
6666;DHT22;3369;49.906;8.598;2024-02-28T08:51:16;5.00;99.90
6666;DHT22;3369;49.906;8.598;2024-02-28T08:53:41;5.20;99.90
6666;DHT22;3369;49.906;8.598;2024-02-28T08:56:07;5.40;99.90
6666;DHT22;3369;49.906;8.598;2024-02-28T08:58:33;5.60;99.90
6666;DHT22;3369;49.906;8.598;2024-02-28T09:00:58;5.70;99.90
6666;DHT22;3369;49.906;8.598;2024-02-28T09:03:24;5.90;99.90
6666;DHT22;3369;49.906;8.598;2024-02-28T09:05:49;6.00;99.90
6666;DHT22;3369;49.906;8.598;2024-02-28T09:08:15;6.10;99.90
6666;DHT22;3369;49.906;8.598;2024-02-28T09:10:41;6.20;99.90
6666;DHT22;3369;49.906;8.598;2024-02-28T09:13:06;6.30;99.90
6666;DHT22;3369;49.906;8.598;2024-02-28T09:15:32;6.30;99.90
6666;DHT22;3369;49.906;8.598;2024-02-28T09:17:59;6.40;99.90
6666;DHT22;3369;49.906;8.598;2024-02-28T09:20:26;6.50;99.90
6666;DHT22;3369;49.906;8.598;2024-02-28T09:22:52;6.50;99.90
6666;DHT22;3369;49.906;8.598;2024-02-28T09:25:17;6.60;99.90
6666;DHT22;3369;49.906;8.598;2024-02-28T09:27:44;6.60;99.90
6666;DHT22;3369;49.906;8.598;2024-02-28T09:30:10;6.60;99.90
6666;DHT22;3369;49.906;8.598;2024-02-28T09:32:35;6.70;99.90
6666;DHT22;3369;49.906;8.598;2024-02-28T09:35:03;6.70;99.90
6666;DHT22;3369;49.906;8.598;2024-02-28T09:37:30;6.80;99.90
6666;DHT22;3369;49.906;8.598;2024-02-28T09:39:57;6.90;99.90
6666;DHT22;3369;49.906;8.598;2024-02-28T09:42:23;7.10;99.90
6666;DHT22;3369;49.906;8.598;2024-02-28T09:44:49;7.20;99.90
6666;DHT22;3369;49.906;8.598;2024-02-28T09:47:14;7.30;99.90
6666;DHT22;3369;49.906;8.598;2024-02-28T09:49:42;7.50;99.90
6666;DHT22;3369;49.906;8.598;2024-02-28T09:52:08;7.60;99.90
6666;DHT22;3369;49.906;8.598;2024-02-28T09:54:34;7.70;99.90
6666;DHT22;3369;49.906;8.598;2024-02-28T09:56:59;7.70;99.90
6666;DHT22;3369;49.906;8.598;2024-02-28T09:59:25;7.90;99.90
6666;DHT22;3369;49.906;8.598;2024-02-28T10:01:59;8.00;99.90
6666;DHT22;3369;49.906;8.598;2024-02-28T10:04:26;8.20;99.90
6666;DHT22;3369;49.906;8.598;2024-02-28T10:06:56;8.30;99.90
6666;DHT22;3369;49.906;8.598;2024-02-28T10:09:22;8.30;99.90
6666;DHT22;3369;49.906;8.598;2024-02-28T10:11:47;8.50;99.90
6666;DHT22;3369;49.906;8.598;2024-02-28T10:14:19;8.60;99.90
6666;DHT22;3369;49.906;8.598;2024-02-28T10:16:45;8.60;99.90
6666;DHT22;3369;49.906;8.598;2024-02-28T10:19:11;8.80;99.90
6666;DHT22;3369;49.906;8.598;2024-02-28T10:21:36;8.90;99.90
6666;DHT22;3369;49.906;8.598;2024-02-28T10:24:02;9.00;99.90
6666;DHT22;3369;49.906;8.598;2024-02-28T10:26:28;9.10;99.90
6666;DHT22;3369;49.906;8.598;2024-02-28T10:28:57;9.30;99.90
6666;DHT22;3369;49.906;8.598;2024-02-28T10:31:22;9.30;99.90
6666;DHT22;3369;49.906;8.598;2024-02-28T10:33:48;9.40;99.90
6666;DHT22;3369;49.906;8.598;2024-02-28T10:36:15;9.40;99.90
6666;DHT22;3369;49.906;8.598;2024-02-28T10:38:41;9.40;99.90
6666;DHT22;3369;49.906;8.598;2024-02-28T10:41:06;9.30;99.90
6666;DHT22;3369;49.906;8.598;2024-02-28T10:43:32;9.30;99.90
6666;DHT22;3369;49.906;8.598;2024-02-28T10:46:00;9.30;99.90
6666;DHT22;3369;49.906;8.598;2024-02-28T10:48:26;9.40;99.90
6666;DHT22;3369;49.906;8.598;2024-02-28T10:50:53;9.40;99.90
6666;DHT22;3369;49.906;8.598;2024-02-28T10:53:37;9.50;99.90
6666;DHT22;3369;49.906;8.598;2024-02-28T10:56:10;9.50;99.90
6666;DHT22;3369;49.906;8.598;2024-02-28T10:58:37;9.60;99.90
6666;DHT22;3369;49.906;8.598;2024-02-28T11:01:05;9.60;99.90
6666;DHT22;3369;49.906;8.598;2024-02-28T11:03:32;9.70;99.90
6666;DHT22;3369;49.906;8.598;2024-02-28T11:05:57;9.70;99.90
6666;DHT22;3369;49.906;8.598;2024-02-28T11:08:26;9.60;99.60
6666;DHT22;3369;49.906;8.598;2024-02-28T11:13:25;9.60;99.90
6666;DHT22;3369;49.906;8.598;2024-02-28T11:15:52;9.60;99.90
6666;DHT22;3369;49.906;8.598;2024-02-28T11:18:18;9.70;99.90
6666;DHT22;3369;49.906;8.598;2024-02-28T11:20:44;9.90;99.90
6666;DHT22;3369;49.906;8.598;2024-02-28T11:23:13;10.00;99.90
6666;DHT22;3369;49.906;8.598;2024-02-28T11:25:42;10.20;99.90
6666;DHT22;3369;49.906;8.598;2024-02-28T11:28:11;10.20;99.90
6666;DHT22;3369;49.906;8.598;2024-02-28T11:30:37;10.40;99.20
6666;DHT22;3369;49.906;8.598;2024-02-28T11:33:02;10.40;99.30
6666;DHT22;3369;49.906;8.598;2024-02-28T11:35:28;10.40;99.20
6666;DHT22;3369;49.906;8.598;2024-02-28T11:37:55;10.40;99.20
6666;DHT22;3369;49.906;8.598;2024-02-28T11:40:26;10.50;99.30
6666;DHT22;3369;49.906;8.598;2024-02-28T11:42:52;10.40;99.40
6666;DHT22;3369;49.906;8.598;2024-02-28T11:45:19;10.40;99.30
6666;DHT22;3369;49.906;8.598;2024-02-28T11:47:45;10.60;99.40
6666;DHT22;3369;49.906;8.598;2024-02-28T11:50:11;10.50;99.10
6666;DHT22;3369;49.906;8.598;2024-02-28T11:52:37;10.50;99.00
6666;DHT22;3369;49.906;8.598;2024-02-28T11:55:03;10.40;98.30
6666;DHT22;3369;49.906;8.598;2024-02-28T11:57:29;10.30;98.70
6666;DHT22;3369;49.906;8.598;2024-02-28T12:00:07;10.30;98.60
6666;DHT22;3369;49.906;8.598;2024-02-28T12:02:33;10.30;98.60
6666;DHT22;3369;49.906;8.598;2024-02-28T12:05:03;10.30;98.40
6666;DHT22;3369;49.906;8.598;2024-02-28T12:07:32;10.40;98.40
6666;DHT22;3369;49.906;8.598;2024-02-28T12:09:58;10.50;98.70
6666;DHT22;3369;49.906;8.598;2024-02-28T12:12:24;10.60;98.70
6666;DHT22;3369;49.906;8.598;2024-02-28T12:14:50;10.70;98.70
6666;DHT22;3369;49.906;8.598;2024-02-28T12:17:16;10.90;99.20
6666;DHT22;3369;49.906;8.598;2024-02-28T12:19:42;11.00;98.80
6666;DHT22;3369;49.906;8.598;2024-02-28T12:22:08;11.10;98.70
6666;DHT22;3369;49.906;8.598;2024-02-28T12:24:34;11.20;98.70
6666;DHT22;3369;49.906;8.598;2024-02-28T12:26:59;11.30;98.50
6666;DHT22;3369;49.906;8.598;2024-02-28T12:29:25;11.40;98.40
6666;DHT22;3369;49.906;8.598;2024-02-28T12:31:50;11.40;98.40
6666;DHT22;3369;49.906;8.598;2024-02-28T12:34:17;11.50;98.30
6666;DHT22;3369;49.906;8.598;2024-02-28T12:36:43;11.50;98.20
6666;DHT22;3369;49.906;8.598;2024-02-28T12:39:09;11.60;98.10
6666;DHT22;3369;49.906;8.598;2024-02-28T12:41:38;11.60;98.10
6666;DHT22;3369;49.906;8.598;2024-02-28T12:44:08;11.70;98.00
6666;DHT22;3369;49.906;8.598;2024-02-28T12:46:34;11.70;98.00
6666;DHT22;3369;49.906;8.598;2024-02-28T12:49:00;11.80;97.70
6666;DHT22;3369;49.906;8.598;2024-02-28T12:51:40;11.80;97.60
6666;DHT22;3369;49.906;8.598;2024-02-28T12:54:07;11.90;97.60
6666;DHT22;3369;49.906;8.598;2024-02-28T12:56:37;12.00;97.50
6666;DHT22;3369;49.906;8.598;2024-02-28T12:59:04;12.00;97.30
6666;DHT22;3369;49.906;8.598;2024-02-28T13:01:30;12.10;97.40
6666;DHT22;3369;49.906;8.598;2024-02-28T13:03:56;12.20;97.00
6666;DHT22;3369;49.906;8.598;2024-02-28T13:06:22;12.10;96.40
6666;DHT22;3369;49.906;8.598;2024-02-28T13:08:47;12.00;96.50
6666;DHT22;3369;49.906;8.598;2024-02-28T13:11:21;12.00;96.60
6666;DHT22;3369;49.906;8.598;2024-02-28T13:13:51;12.10;96.70
6666;DHT22;3369;49.906;8.598;2024-02-28T13:16:20;12.10;96.60
6666;DHT22;3369;49.906;8.598;2024-02-28T13:18:47;12.10;96.40
6666;DHT22;3369;49.906;8.598;2024-02-28T13:21:13;12.20;96.40
6666;DHT22;3369;49.906;8.598;2024-02-28T13:23:39;12.20;96.40
6666;DHT22;3369;49.906;8.598;2024-02-28T13:26:05;12.30;96.30
6666;DHT22;3369;49.906;8.598;2024-02-28T13:28:31;12.20;95.90
6666;DHT22;3369;49.906;8.598;2024-02-28T13:31:00;12.10;95.80
6666;DHT22;3369;49.906;8.598;2024-02-28T13:33:27;12.10;95.70
6666;DHT22;3369;49.906;8.598;2024-02-28T13:35:53;12.10;95.80
6666;DHT22;3369;49.906;8.598;2024-02-28T13:38:19;12.20;96.00
6666;DHT22;3369;49.906;8.598;2024-02-28T13:40:49;12.20;95.90
6666;DHT22;3369;49.906;8.598;2024-02-28T13:43:16;12.20;95.80
6666;DHT22;3369;49.906;8.598;2024-02-28T13:45:51;12.30;95.70
6666;DHT22;3369;49.906;8.598;2024-02-28T13:48:27;12.20;95.40
6666;DHT22;3369;49.906;8.598;2024-02-28T13:50:54;12.30;95.40
6666;DHT22;3369;49.906;8.598;2024-02-28T13:53:20;12.40;95.40
6666;DHT22;3369;49.906;8.598;2024-02-28T13:55:46;12.40;95.30
6666;DHT22;3369;49.906;8.598;2024-02-28T13:58:12;12.40;95.30
6666;DHT22;3369;49.906;8.598;2024-02-28T14:00:39;12.30;95.30
6666;DHT22;3369;49.906;8.598;2024-02-28T14:03:05;12.40;95.10
6666;DHT22;3369;49.906;8.598;2024-02-28T14:05:34;12.40;94.90
6666;DHT22;3369;49.906;8.598;2024-02-28T14:07:59;12.40;94.80
6666;DHT22;3369;49.906;8.598;2024-02-28T14:10:26;12.40;94.60
6666;DHT22;3369;49.906;8.598;2024-02-28T14:12:52;12.40;94.30
6666;DHT22;3369;49.906;8.598;2024-02-28T14:15:21;12.40;94.30
6666;DHT22;3369;49.906;8.598;2024-02-28T14:17:48;12.30;94.30
6666;DHT22;3369;49.906;8.598;2024-02-28T14:20:14;12.30;94.00
6666;DHT22;3369;49.906;8.598;2024-02-28T14:22:39;12.30;93.90
6666;DHT22;3369;49.906;8.598;2024-02-28T14:25:14;12.30;93.90
6666;DHT22;3369;49.906;8.598;2024-02-28T14:27:43;12.20;93.70
6666;DHT22;3369;49.906;8.598;2024-02-28T14:30:10;12.20;93.80
6666;DHT22;3369;49.906;8.598;2024-02-28T14:32:40;12.20;93.80
6666;DHT22;3369;49.906;8.598;2024-02-28T14:35:07;12.20;93.90
6666;DHT22;3369;49.906;8.598;2024-02-28T14:37:38;12.20;93.80
6666;DHT22;3369;49.906;8.598;2024-02-28T14:40:06;12.20;93.70
6666;DHT22;3369;49.906;8.598;2024-02-28T14:42:40;12.20;93.70
6666;DHT22;3369;49.906;8.598;2024-02-28T14:45:07;12.10;93.80
6666;DHT22;3369;49.906;8.598;2024-02-28T14:47:34;12.10;93.90
6666;DHT22;3369;49.906;8.598;2024-02-28T14:50:03;12.10;93.80
6666;DHT22;3369;49.906;8.598;2024-02-28T14:52:30;12.00;93.80
6666;DHT22;3369;49.906;8.598;2024-02-28T14:54:55;12.00;93.80
6666;DHT22;3369;49.906;8.598;2024-02-28T14:57:21;11.90;93.70
6666;DHT22;3369;49.906;8.598;2024-02-28T14:59:46;11.90;93.80
6666;DHT22;3369;49.906;8.598;2024-02-28T15:02:12;11.90;93.70
6666;DHT22;3369;49.906;8.598;2024-02-28T15:04:38;11.90;93.70
6666;DHT22;3369;49.906;8.598;2024-02-28T15:07:04;11.80;93.60
6666;DHT22;3369;49.906;8.598;2024-02-28T15:09:30;11.80;93.70
6666;DHT22;3369;49.906;8.598;2024-02-28T15:11:56;11.80;93.60
6666;DHT22;3369;49.906;8.598;2024-02-28T15:14:22;11.60;93.60
6666;DHT22;3369;49.906;8.598;2024-02-28T15:16:48;11.70;93.60
6666;DHT22;3369;49.906;8.598;2024-02-28T15:19:14;11.70;93.40
6666;DHT22;3369;49.906;8.598;2024-02-28T15:21:40;11.60;93.30
6666;DHT22;3369;49.906;8.598;2024-02-28T15:24:06;11.60;93.20
6666;DHT22;3369;49.906;8.598;2024-02-28T15:26:31;11.60;93.20
6666;DHT22;3369;49.906;8.598;2024-02-28T15:28:57;11.60;93.20
6666;DHT22;3369;49.906;8.598;2024-02-28T15:31:24;11.70;93.30
6666;DHT22;3369;49.906;8.598;2024-02-28T15:33:50;11.70;93.40
6666;DHT22;3369;49.906;8.598;2024-02-28T15:36:15;11.60;93.40
6666;DHT22;3369;49.906;8.598;2024-02-28T15:38:41;11.60;93.50
6666;DHT22;3369;49.906;8.598;2024-02-28T15:41:07;11.50;93.40
6666;DHT22;3369;49.906;8.598;2024-02-28T15:43:33;11.50;93.50
6666;DHT22;3369;49.906;8.598;2024-02-28T15:46:00;11.50;93.60
6666;DHT22;3369;49.906;8.598;2024-02-28T15:48:25;11.40;93.60
6666;DHT22;3369;49.906;8.598;2024-02-28T15:50:52;11.40;93.60
6666;DHT22;3369;49.906;8.598;2024-02-28T15:53:18;11.30;93.60
6666;DHT22;3369;49.906;8.598;2024-02-28T15:55:44;11.30;93.60
6666;DHT22;3369;49.906;8.598;2024-02-28T15:58:09;11.20;94.00
6666;DHT22;3369;49.906;8.598;2024-02-28T16:00:35;11.10;93.70
6666;DHT22;3369;49.906;8.598;2024-02-28T16:03:01;11.10;93.80
6666;DHT22;3369;49.906;8.598;2024-02-28T16:05:26;11.10;93.90
6666;DHT22;3369;49.906;8.598;2024-02-28T16:07:53;11.00;93.90